Time;durP1;ratioP1;P1;durP2;ratioP2;P2;SDS_P1;SDS_P2;PMS_P1;PMS_P2;Temp;Humidity;BMP_temperature;BMP_pressure;BME280_temperature;BME280_humidity;BME280_pressure;Samples;Min_cycle;Max_cycle;Signal;HPM_P1;HPM_P2
2023/03/21 00:00:21;;;;;;;;;17.00;16.33;;;;;14.47;57.19;101568.19;2027858;28;3562752;-75
2023/03/21 00:01:33;;;;;;;;;17.80;15.80;;;;;14.47;56.62;101568.19;2036274;28;3552301;-75
2023/03/21 00:02:45;;;;;;;;;17.33;16.67;;;;;14.47;56.73;101565.53;2031715;28;3558594;-75
2023/03/21 00:03:57;;;;;;;;;19.67;17.67;;;;;14.47;56.95;101562.88;2031263;28;3570032;-75
2023/03/21 00:05:09;;;;;;;;;18.80;17.40;;;;;14.47;57.10;101568.19;2036897;28;3554382;-75
2023/03/21 00:06:21;;;;;;;;;19.67;17.67;;;;;14.46;56.64;101563.81;2025322;28;3570034;-75
2023/03/21 00:07:33;;;;;;;;;16.67;16.00;;;;;14.46;57.04;101560.31;2015835;28;3558566;-75
2023/03/21 00:08:44;;;;;;;;;18.33;15.00;;;;;14.46;56.78;101565.59;2031644;28;3545388;-75
2023/03/21 00:09:56;;;;;;;;;17.67;16.00;;;;;14.46;56.92;101566.47;2031882;28;2821179;-75
2023/03/21 00:11:10;;;;;;;;;14.00;14.00;;;;;14.45;57.00;101562.09;2014794;28;2796087;-75
2023/03/21 00:12:22;;;;;;;;;16.00;16.00;;;;;14.45;56.98;101562.09;1993298;28;3552355;-75
2023/03/21 00:13:37;;;;;;;;;15.67;14.00;;;;;14.45;56.66;101564.72;2030920;28;2810698;-75
2023/03/21 00:14:49;;;;;;;;;14.33;11.00;;;;;14.46;56.74;101568.25;2016206;28;2794005;-75
2023/03/21 00:16:08;;;;;;;;;15.00;12.33;;;;;14.45;56.61;101563.88;2016336;28;2799261;-75
2023/03/21 00:17:21;;;;;;;;;13.50;11.00;;;;;14.43;56.46;101561.28;2016205;28;2784659;-75
2023/03/21 00:18:35;;;;;;;;;15.50;12.67;;;;;14.43;56.12;101558.63;2024127;28;1842037;-75
2023/03/21 00:19:52;;;;;;;;;13.50;12.50;;;;;14.42;55.87;101561.34;2024824;28;1830053;-75
2023/03/21 00:21:04;;;;;;;;;15.00;12.50;;;;;14.40;56.01;101554.31;1993721;28;2785788;-75
2023/03/21 00:22:15;;;;;;;;;16.00;14.50;;;;;14.40;56.14;101559.63;1993925;28;2800271;-75
2023/03/21 00:23:28;;;;;;;;;16.60;15.00;;;;;14.40;56.01;101556.97;2043344;28;1835761;-75
2023/03/21 00:24:39;;;;;;;;;19.00;15.33;;;;;14.39;56.26;101555.25;1993575;28;2823274;-75
2023/03/21 00:25:50;;;;;;;;;15.00;11.00;;;;;14.39;56.22;101557.91;2016020;28;2786721;-75
2023/03/21 00:27:01;;;;;;;;;16.50;14.00;;;;;14.39;56.24;101555.25;2009103;28;2799736;-75
2023/03/21 00:28:12;;;;;;;;;9.67;4.67;;;;;14.38;56.09;101557.94;2007183;28;3482532;-75
2023/03/21 00:29:25;;;;;;;;;15.50;13.83;;;;;14.38;55.63;101553.53;2050083;28;2810655;-75
2023/03/21 00:30:39;;;;;;;;;15.50;14.50;;;;;14.37;56.01;101557.06;2011007;28;2806533;-75
2023/03/21 00:31:52;;;;;;;;;16.50;13.17;;;;;14.36;56.25;101552.72;2023774;28;1833629;-75
2023/03/21 00:33:02;;;;;;;;;14.50;11.50;;;;;14.37;56.36;101550.94;1992713;28;2792000;-75
2023/03/21 00:34:14;;;;;;;;;14.00;14.00;;;;;14.38;56.61;101553.53;2010226;28;2791906;-75
2023/03/21 00:35:26;;;;;;;;;11.40;10.20;;;;;14.37;56.62;101551.78;2024675;28;1822225;-75
2023/03/21 00:36:40;;;;;;;;;16.67;14.83;;;;;14.36;56.74;101554.50;2046529;28;1833651;-75
2023/03/21 00:37:50;;;;;;;;;14.00;10.00;;;;;14.37;56.51;101554.41;1992000;28;2784642;-75
2023/03/21 00:39:01;;;;;;;;;18.50;13.50;;;;;14.38;57.19;101552.66;2011201;28;2812722;-75
2023/03/21 00:40:13;;;;;;;;;16.00;14.00;;;;;14.36;56.40;101550.06;2000503;28;2806517;-75
2023/03/21 00:41:24;;;;;;;;;15.00;12.50;;;;;14.36;56.60;101549.19;1991824;28;2806478;-75
2023/03/21 00:42:35;;;;;;;;;13.50;13.50;;;;;14.35;56.59;101548.34;2008486;28;2803392;-75
2023/03/21 00:43:46;;;;;;;;;16.00;11.00;;;;;14.34;56.68;101548.41;1993536;28;2797161;-75
2023/03/21 00:44:57;;;;;;;;;14.50;13.00;;;;;14.33;56.88;101555.47;2010415;28;2789828;-75
2023/03/21 00:46:08;;;;;;;;;14.00;14.00;;;;;14.34;56.69;101553.69;2011543;28;2792972;-75
2023/03/21 00:47:20;;;;;;;;;14.40;11.60;;;;;14.34;56.88;101551.03;2008572;28;2805428;-75
2023/03/21 00:48:34;;;;;;;;;14.86;12.71;;;;;14.34;56.84;101551.91;2047068;28;1827396;-75
2023/03/21 00:49:47;;;;;;;;;14.00;10.67;;;;;14.33;56.85;101550.19;2047148;28;1827409;-75
2023/03/21 00:51:01;;;;;;;;;12.67;10.17;;;;;14.33;57.00;101546.66;2025280;28;1830557;-75
2023/03/21 00:52:11;;;;;;;;;14.00;13.50;;;;;14.33;57.17;101541.38;1992698;28;2802406;-75
2023/03/21 00:53:23;;;;;;;;;16.33;13.00;;;;;14.33;56.85;101544.00;2009859;28;2787720;-75
2023/03/21 00:54:37;;;;;;;;;13.29;11.43;;;;;14.33;56.99;101544.00;2046306;28;1828437;-75
2023/03/21 00:55:48;;;;;;;;;14.00;13.50;;;;;14.32;57.00;101539.66;2016088;28;2786710;-75
2023/03/21 00:57:01;;;;;;;;;14.00;14.00;;;;;14.31;56.85;101536.16;1991916;28;2784623;-75
2023/03/21 00:58:13;;;;;;;;;13.67;13.00;;;;;14.31;56.96;101543.22;2015892;28;2789894;-75
2023/03/21 00:59:24;;;;;;;;;18.33;15.67;;;;;14.30;56.84;101531.75;2014184;28;3551290;-75
2023/03/21 01:00:36;;;;;;;;;13.00;12.00;;;;;14.29;57.04;101538.84;2030630;28;2785692;-74
2023/03/21 01:01:46;;;;;;;;;11.50;10.50;;;;;14.30;57.25;101539.69;1991347;28;2789846;-75
2023/03/21 01:02:57;;;;;;;;;16.00;14.00;;;;;14.30;56.97;101534.41;2010594;28;2804906;-75
2023/03/21 01:04:13;;;;;;;;;15.00;14.50;;;;;14.28;57.06;101536.25;2002843;28;2799179;-75
2023/03/21 01:06:56;;;;;;;;;16.00;15.00;;;;;14.27;56.84;101530.09;2015184;28;2800264;-75
2023/03/21 01:08:08;;;;;;;;;17.40;13.00;;;;;14.26;56.93;101528.38;2010689;28;2792972;-75
2023/03/21 01:09:22;;;;;;;;;16.00;15.00;;;;;14.26;56.98;101528.38;2013343;28;2809692;-75
2023/03/21 01:10:38;;;;;;;;;16.50;14.17;;;;;14.25;57.23;101531.06;2046348;28;1831572;-75
2023/03/21 01:11:49;;;;;;;;;15.00;15.00;;;;;14.24;57.01;101524.94;1992756;28;2791917;-75
2023/03/21 01:13:03;;;;;;;;;16.17;13.33;;;;;14.24;56.77;101518.78;2022749;28;1829403;-75
2023/03/21 01:14:15;;;;;;;;;15.00;15.00;;;;;14.22;56.99;101516.19;1991324;28;2791271;-75
2023/03/21 01:15:25;;;;;;;;;18.00;13.00;;;;;14.23;57.00;101525.84;1994190;28;2804437;-75
2023/03/21 01:16:37;;;;;;;;;18.00;15.80;;;;;14.23;57.02;101524.97;2033941;28;3546434;-74
2023/03/21 01:17:48;;;;;;;;;12.00;10.00;;;;;14.21;56.86;101518.88;2030755;28;2791267;-75
2023/03/21 01:19:00;;;;;;;;;14.20;14.20;;;;;14.20;56.78;101520.66;2019719;28;1831555;-75
2023/03/21 01:20:13;;;;;;;;;14.00;14.00;;;;;14.17;56.59;101513.69;2032962;28;2807535;-75
2023/03/21 01:21:24;;;;;;;;;15.50;10.50;;;;;14.16;56.71;101517.28;2005205;28;2791906;-75
2023/03/21 01:22:35;;;;;;;;;11.50;10.50;;;;;14.14;55.97;101512.97;2000845;28;2786734;-75
2023/03/21 01:23:46;;;;;;;;;17.50;14.00;;;;;14.13;56.30;101512.09;2005366;28;2796077;-75
2023/03/21 01:24:57;;;;;;;;;14.00;13.00;;;;;14.10;56.68;101506.91;1993945;28;2787843;-75
2023/03/21 01:26:10;;;;;;;;;15.67;13.00;;;;;14.09;56.82;101504.31;2006481;28;2806895;-75
2023/03/21 01:27:21;;;;;;;;;11.00;11.00;;;;;14.09;56.46;101507.84;2016029;28;2795004;-75
2023/03/21 01:28:33;;;;;;;;;14.00;9.25;;;;;14.09;56.16;101504.31;2022131;28;1822196;-75
2023/03/21 01:29:46;;;;;;;;;12.00;10.67;;;;;14.06;56.42;101500.88;2024876;28;1821224;-75
2023/03/21 01:30:59;;;;;;;;;14.00;10.00;;;;;14.05;56.30;101498.31;1992412;28;2779458;-75
2023/03/21 01:32:09;;;;;;;;;11.00;10.00;;;;;14.04;56.52;101497.44;1992394;28;2786718;-75
2023/03/21 01:33:21;;;;;;;;;13.50;10.50;;;;;14.04;56.25;101500.06;2033102;28;2789895;-75
2023/03/21 01:34:35;;;;;;;;;13.33;9.83;;;;;14.03;56.48;101508.03;2018070;28;1827384;-75
2023/03/21 01:35:45;;;;;;;;;12.00;9.00;;;;;14.01;56.46;101497.53;1991552;28;2774266;-74
2023/03/21 01:36:57;;;;;;;;;16.60;11.20;;;;;14.01;56.67;101494.88;2019956;28;1829491;-75
2023/03/21 01:38:08;;;;;;;;;13.00;11.50;;;;;14.01;56.67;101499.31;1991285;28;2791898;-75
2023/03/21 01:39:19;;;;;;;;;9.50;9.50;;;;;13.99;56.45;101504.66;1992963;28;2768999;-75
2023/03/21 01:40:30;;;;;;;;;12.50;11.00;;;;;13.99;56.52;101506.44;2031420;28;2791933;-75
2023/03/21 01:41:41;;;;;;;;;13.00;10.00;;;;;13.98;56.57;101507.34;2007333;28;2787716;-75
2023/03/21 01:42:52;;;;;;;;;8.00;8.00;;;;;13.97;56.93;101505.63;2018286;28;2736724;-75
2023/03/21 01:44:04;;;;;;;;;8.00;8.00;;;;;13.96;56.24;101504.75;2032432;28;2741971;-75
2023/03/21 01:45:52;;;;;;;;;11.50;9.00;;;;;13.94;56.47;101502.19;1991469;28;2776329;-75
2023/03/21 01:47:03;;;;;;;;;15.00;14.00;;;;;13.92;56.53;101504.03;2015388;28;2804433;-75
2023/03/21 01:48:15;;;;;;;;;10.00;9.75;;;;;13.91;56.45;101510.22;2020993;28;1844027;-75
2023/03/21 01:49:34;;;;;;;;;10.50;9.75;;;;;13.89;56.33;101504.13;2028461;28;1839869;-75
2023/03/21 01:50:50;;;;;;;;;10.67;10.50;;;;;13.86;56.27;101501.56;2048177;28;1819060;-75
2023/03/21 01:52:07;;;;;;;;;11.50;11.50;;;;;13.85;56.45;101499.88;1993047;28;2786725;-75
2023/03/21 01:53:28;;;;;;;;;13.17;11.00;;;;;13.84;56.33;101503.41;2024417;28;1831551;-75
2023/03/21 01:54:41;;;;;;;;;14.50;13.00;;;;;13.82;56.70;101500.84;1992314;28;2781518;-75
2023/03/21 01:55:53;;;;;;;;;10.00;9.25;;;;;13.80;56.31;101505.28;2002026;28;1833588;-74
2023/03/21 01:57:09;;;;;;;;;10.00;8.33;;;;;13.78;56.21;101496.53;2017537;28;2756990;-75
2023/03/21 01:58:24;;;;;;;;;11.00;10.00;;;;;13.75;56.02;101496.69;2047536;28;1823212;-75
2023/03/21 01:59:37;;;;;;;;;9.50;7.00;;;;;13.73;55.96;101494.06;2021806;28;2746120;-75
2023/03/21 02:00:49;;;;;;;;;11.33;10.33;;;;;13.70;56.40;101491.53;1992248;28;3510700;-75
2023/03/21 02:02:06;;;;;;;;;12.00;10.00;;;;;13.69;56.07;101495.09;1992340;28;2780472;-75
2023/03/21 02:03:17;;;;;;;;;10.25;7.50;;;;;13.67;56.10;101496.06;2030425;28;1831549;-75
2023/03/21 02:04:29;;;;;;;;;10.00;8.00;;;;;13.67;56.34;101494.28;2035171;28;1841916;-75
2023/03/21 02:05:43;;;;;;;;;10.00;8.67;;;;;13.65;56.62;101490.84;1993129;28;3478360;-75
2023/03/21 02:06:59;;;;;;;;;9.00;8.00;;;;;13.64;56.33;101488.22;2015845;28;2741935;-75
2023/03/21 02:08:12;;;;;;;;;9.00;9.00;;;;;13.63;56.37;101483.88;2018016;28;2731522;-75
2023/03/21 02:09:27;;;;;;;;;9.33;8.33;;;;;13.61;56.44;101484.78;2016992;28;2751383;-75
2023/03/21 02:10:39;;;;;;;;;12.33;9.00;;;;;13.61;56.49;101487.44;2016536;28;3492955;-75
2023/03/21 02:11:51;;;;;;;;;8.33;8.00;;;;;13.59;56.44;101480.47;2017158;28;3455883;-75
2023/03/21 02:13:09;;;;;;;;;7.67;7.17;;;;;13.58;56.37;101487.53;2043938;28;2744002;-75
2023/03/21 02:14:20;;;;;;;;;6.33;5.33;;;;;13.58;56.14;101486.69;2008969;28;1813805;-75
2023/03/21 02:15:30;;;;;;;;;9.00;7.67;;;;;13.56;56.29;101481.44;1996470;28;2743351;-75
2023/03/21 02:17:00;;;;;;;;;8.00;6.67;;;;;13.56;55.85;101483.19;2048737;28;1833187;-75
2023/03/21 02:18:21;;;;;;;;;11.50;9.50;;;;;13.56;56.21;101483.19;1993799;28;2775324;-75
2023/03/21 02:19:56;;;;;;;;;11.67;8.67;;;;;13.54;55.78;101477.09;2014059;28;3477358;-74
2023/03/21 02:21:29;;;;;;;;;9.00;8.33;;;;;13.54;55.99;101474.44;2021906;28;3458586;-75
2023/03/21 02:23:10;;;;;;;;;8.33;7.33;;;;;13.53;56.16;101475.38;2017223;28;3453377;-75
2023/03/21 02:24:59;;;;;;;;;9.00;6.33;;;;;13.52;55.86;101473.63;2018081;28;2737845;-75
2023/03/21 02:26:21;;;;;;;;;11.00;7.67;;;;;13.50;55.80;101468.41;1998669;28;3470059;-75
2023/03/21 02:27:41;;;;;;;;;8.00;7.00;;;;;13.49;55.81;101462.25;2018505;28;2736735;-74
2023/03/21 02:29:20;;;;;;;;;9.00;5.67;;;;;13.50;55.79;101463.13;2018633;28;2742976;-75
2023/03/21 02:30:52;;;;;;;;;9.67;7.67;;;;;13.48;55.35;101460.53;2017911;28;2751391;-75
2023/03/21 02:32:12;;;;;;;;;8.00;7.00;;;;;13.48;55.49;101463.16;2017550;28;2731568;-75
2023/03/21 02:33:50;;;;;;;;;8.67;7.83;;;;;13.48;55.56;101462.34;2043526;28;2727368;-75
2023/03/21 02:35:57;;;;;;;;;8.67;8.17;;;;;13.47;55.67;101460.59;2021281;28;2735703;-75
2023/03/21 02:37:20;;;;;;;;;7.33;5.67;;;;;13.47;55.77;101456.19;1992095;28;3457560;-75
2023/03/21 02:38:40;;;;;;;;;11.00;9.67;;;;;13.47;55.75;101456.19;1992522;28;3476281;-75
2023/03/21 02:39:59;;;;;;;;;6.00;5.67;;;;;13.46;55.63;101451.78;2038056;28;2732568;-75
2023/03/21 02:41:34;;;;;;;;;3.00;2.33;;;;;13.47;55.41;101450.91;2044913;28;2741956;-75
2023/03/21 02:43:06;;;;;;;;;8.17;7.00;;;;;13.46;54.97;101449.16;2042977;28;2741929;-75
2023/03/21 02:44:29;;;;;;;;;5.33;5.33;;;;;13.44;54.80;101451.00;2019974;28;2743079;-75
2023/03/21 02:45:46;;;;;;;;;10.33;6.33;;;;;13.44;55.17;101448.34;1994207;28;3474187;-75
2023/03/21 02:47:35;;;;;;;;;7.00;6.00;;;;;13.43;55.43;101449.28;2032219;27;3459739;-75
2023/03/21 02:48:56;;;;;;;;;8.33;6.50;;;;;13.43;55.04;101454.56;2036900;28;2739869;-75
2023/03/21 02:50:15;;;;;;;;;7.00;5.33;;;;;13.44;55.03;101452.75;2017074;28;2744048;-75
2023/03/21 02:51:33;;;;;;;;;8.17;6.50;;;;;13.44;55.33;101444.84;2040678;28;2741931;-75
2023/03/21 02:52:48;;;;;;;;;7.33;5.33;;;;;13.43;54.92;101438.72;2020067;28;2737773;-75
2023/03/21 02:54:07;;;;;;;;;9.00;9.00;;;;;13.43;55.13;101433.44;2001145;28;1821085;-75
2023/03/21 02:55:25;;;;;;;;;7.83;6.33;;;;;13.44;55.00;101440.44;2014810;28;2740906;-75
2023/03/21 02:56:36;;;;;;;;;9.33;4.00;;;;;13.44;55.03;101435.16;2016633;28;2756515;-75
2023/03/21 02:57:49;;;;;;;;;8.00;7.00;;;;;13.43;55.08;101437.84;2017214;28;3452340;-74
2023/03/21 02:59:05;;;;;;;;;5.83;5.83;;;;;13.43;55.10;101433.44;2044323;28;2727360;-75
2023/03/21 03:00:20;;;;;;;;;8.50;7.50;;;;;13.43;54.78;101432.56;1993274;28;2733618;-75
2023/03/21 03:01:31;;;;;;;;;8.00;8.00;;;;;13.41;54.91;101435.25;2017851;28;2740909;-75
2023/03/21 03:02:44;;;;;;;;;5.00;4.00;;;;;13.42;54.88;101433.47;2042367;28;2736736;-74
2023/03/21 03:03:57;;;;;;;;;4.00;4.00;;;;;13.41;55.16;101439.69;2042545;28;2739840;-75
2023/03/21 03:05:17;;;;;;;;;7.67;6.00;;;;;13.41;55.19;101440.53;1994181;28;2740937;-75
2023/03/21 03:06:47;;;;;;;;;12.33;7.33;;;;;13.43;55.32;101443.13;2018116;28;2751307;-75
2023/03/21 03:08:25;;;;;;;;;9.67;4.00;;;;;13.40;54.92;101433.53;2010486;28;2761746;-75
2023/03/21 03:09:53;;;;;;;;;6.33;6.33;;;;;13.41;55.37;101439.69;2010606;28;2745065;-74
2023/03/21 03:11:22;;;;;;;;;6.83;5.83;;;;;13.41;55.25;101437.03;2036418;28;2737759;-75
2023/03/21 03:12:44;;;;;;;;;4.00;4.00;;;;;13.39;55.08;101437.94;2019385;28;2745044;-75
2023/03/21 03:14:04;;;;;;;;;7.33;5.67;;;;;13.39;54.87;101434.44;1988350;28;2745549;-75
2023/03/21 03:15:44;;;;;;;;;6.00;4.67;;;;;13.37;55.08;101436.28;2037812;28;2747522;-75
2023/03/21 03:17:16;;;;;;;;;5.17;5.17;;;;;13.37;55.31;101433.63;2019938;28;2748178;-75
2023/03/21 03:18:51;;;;;;;;;8.00;4.67;;;;;13.37;55.26;101433.63;2019736;28;2742000;-75
2023/03/21 03:20:34;;;;;;;;;7.00;7.00;;;;;13.35;55.22;101431.06;1993357;28;3455512;-75
2023/03/21 03:21:55;;;;;;;;;9.00;5.67;;;;;13.36;54.93;101431.91;2017698;28;2755617;-75
2023/03/21 03:23:26;;;;;;;;;6.50;5.17;;;;;13.34;55.21;101439.88;2043965;28;2740913;-75
2023/03/21 03:24:56;;;;;;;;;6.50;5.17;;;;;13.34;55.03;101431.09;2021025;28;2745566;-75
2023/03/21 03:26:13;;;;;;;;;6.00;4.67;;;;;13.32;54.67;101425.88;1994894;28;2748194;-75
2023/03/21 03:27:35;;;;;;;;;6.50;6.33;;;;;13.33;54.90;101429.38;2043674;28;2738815;-75
2023/03/21 03:28:53;;;;;;;;;6.33;4.00;;;;;13.32;55.24;101425.88;2020503;28;2740956;-75
2023/03/21 03:30:08;;;;;;;;;6.00;6.00;;;;;13.32;54.85;101427.63;1995149;28;2745155;-75
2023/03/21 03:31:24;;;;;;;;;9.00;6.67;;;;;13.32;54.96;101427.63;2019278;28;2746134;-75
2023/03/21 03:32:43;;;;;;;;;6.50;4.83;;;;;13.32;54.89;101427.63;2044423;28;2742964;-75
2023/03/21 03:33:59;;;;;;;;;9.67;7.00;;;;;13.30;54.50;101427.69;1994699;28;2754899;-75
2023/03/21 03:35:11;;;;;;;;;4.00;4.00;;;;;13.31;54.64;101424.13;2018301;28;2754585;-75
2023/03/21 03:36:30;;;;;;;;;6.83;5.67;;;;;13.30;54.41;101418.91;2037032;28;2735707;-75
2023/03/21 03:37:48;;;;;;;;;6.00;4.00;;;;;13.30;54.10;101426.84;2046709;28;2745071;-74
2023/03/21 03:39:06;;;;;;;;;5.83;5.67;;;;;13.28;54.81;101418.97;2027737;28;2741948;-75
2023/03/21 03:40:42;;;;;;;;;7.33;5.00;;;;;13.29;54.48;101420.69;2019679;28;2746113;-75
2023/03/21 03:42:04;;;;;;;;;4.50;4.50;;;;;13.28;54.84;101419.81;2035915;28;2737147;-75
2023/03/21 03:43:23;;;;;;;;;7.17;5.67;;;;;13.28;54.42;101421.63;2016098;28;2732538;-75
2023/03/21 03:44:36;;;;;;;;;3.67;3.67;;;;;13.28;54.47;101424.25;2021307;28;2746098;-75
2023/03/21 03:45:57;;;;;;;;;5.00;4.50;;;;;13.28;54.47;101430.38;2022270;28;2735155;-74
2023/03/21 03:47:18;;;;;;;;;7.83;4.17;;;;;13.28;54.46;101429.53;2020739;28;2746122;-75
2023/03/21 03:48:44;;;;;;;;;6.50;4.50;;;;;13.28;54.46;101421.63;2014057;28;2735146;-75
2023/03/21 03:50:05;;;;;;;;;6.00;5.00;;;;;13.28;54.34;101414.53;1993515;28;3451298;-74
2023/03/21 03:51:26;;;;;;;;;7.67;7.00;;;;;13.26;54.46;101413.72;2045115;28;2746101;-75
2023/03/21 03:53:00;;;;;;;;;4.83;2.33;;;;;13.26;54.57;101419.00;2022076;28;2746614;-75
2023/03/21 03:54:17;;;;;;;;;6.67;5.50;;;;;13.26;54.70;101416.38;2021959;28;2737768;-74
2023/03/21 03:55:33;;;;;;;;;9.00;5.67;;;;;13.27;54.73;101417.25;2043738;28;2746114;-74
2023/03/21 03:56:46;;;;;;;;;5.33;5.00;;;;;13.27;54.95;101414.59;2014598;28;2739841;-75
2023/03/21 03:57:57;;;;;;;;;6.67;6.67;;;;;13.27;54.60;101420.75;1988346;28;2739920;-75
2023/03/21 03:59:08;;;;;;;;;4.67;4.67;;;;;13.27;54.76;101419.88;2043881;28;2745077;-75
2023/03/21 04:00:20;;;;;;;;;3.33;3.33;;;;;13.27;54.70;101420.75;2018859;28;2750368;-75
2023/03/21 04:01:30;;;;;;;;;4.67;4.67;;;;;13.26;54.72;101411.09;2018179;28;2745168;-75
2023/03/21 04:02:42;;;;;;;;;5.00;5.00;;;;;13.26;54.84;101411.09;2034537;28;2734632;-75
2023/03/21 04:03:52;;;;;;;;;4.00;4.00;;;;;13.26;55.03;101411.09;2018821;28;2750261;-75
2023/03/21 04:05:04;;;;;;;;;12.00;4.67;;;;;13.26;54.97;101411.09;2028842;28;2762865;-75
2023/03/21 04:06:18;;;;;;;;;5.00;4.67;;;;;13.27;55.28;101412.81;2044855;28;2740894;-75
2023/03/21 04:07:31;;;;;;;;;5.17;5.00;;;;;13.26;54.28;101412.88;2021174;28;2746133;-75
2023/03/21 04:08:44;;;;;;;;;4.50;4.50;;;;;13.26;54.59;101410.25;2020875;28;2746095;-75
2023/03/21 04:09:58;;;;;;;;;6.50;6.17;;;;;13.25;55.10;101414.66;2021236;28;2736731;-75
2023/03/21 04:11:15;;;;;;;;;4.50;4.50;;;;;13.24;55.14;101415.56;2044767;28;2741955;-74
2023/03/21 04:12:28;;;;;;;;;4.00;4.00;;;;;13.25;54.81;101419.06;2021020;28;2750268;-75
2023/03/21 04:13:38;;;;;;;;;4.00;4.00;;;;;13.25;55.07;101417.31;1994864;28;2747168;-75
2023/03/21 04:14:50;;;;;;;;;5.00;3.33;;;;;13.25;54.98;101419.94;2043231;28;2737785;-75
2023/03/21 04:16:01;;;;;;;;;3.67;3.00;;;;;13.24;54.91;101418.19;2018771;28;3464843;-75
2023/03/21 04:17:15;;;;;;;;;4.33;4.33;;;;;13.25;55.34;101424.34;2043940;28;2748174;-75
2023/03/21 04:18:28;;;;;;;;;6.17;4.50;;;;;13.24;54.56;101426.13;2034937;27;2735676;-74
2023/03/21 04:19:41;;;;;;;;;4.17;4.17;;;;;13.24;54.86;101428.75;2035010;27;2747148;-75
2023/03/21 04:20:52;;;;;;;;;10.00;4.00;;;;;13.24;54.88;101434.03;1994037;28;3475727;-74
2023/03/21 04:22:03;;;;;;;;;7.75;5.50;;;;;13.25;54.92;101434.91;2044562;28;2735694;-75
2023/03/21 04:23:15;;;;;;;;;4.00;3.33;;;;;13.24;54.94;101434.03;2018446;28;2749218;-75
2023/03/21 04:24:32;;;;;;;;;4.83;2.67;;;;;13.24;54.75;101436.69;2044823;28;2741935;-75
2023/03/21 04:25:45;;;;;;;;;7.17;5.33;;;;;13.25;55.00;101435.78;2021870;28;2740871;-74
2023/03/21 04:26:59;;;;;;;;;6.67;6.17;;;;;13.24;55.18;101431.41;2021450;28;2727359;-75
2023/03/21 04:28:10;;;;;;;;;9.33;5.00;;;;;13.24;55.26;101431.41;1995428;28;2740917;-75
2023/03/21 04:29:24;;;;;;;;;6.33;5.17;;;;;13.24;55.11;101418.19;2044694;28;2736719;-75
2023/03/21 04:30:38;;;;;;;;;5.83;5.83;;;;;13.24;54.64;101417.34;2021125;28;2745061;-75
2023/03/21 04:31:52;;;;;;;;;7.50;5.33;;;;;13.24;54.74;101422.59;2021286;28;2735702;-75
2023/03/21 04:33:05;;;;;;;;;4.67;4.67;;;;;13.23;55.00;101426.19;2021331;28;2744000;-75
2023/03/21 04:34:22;;;;;;;;;5.83;5.00;;;;;13.22;54.94;101429.72;2020585;28;2749231;-75
2023/03/21 04:35:35;;;;;;;;;4.00;4.00;;;;;13.21;55.26;101431.50;2003391;28;2727368;-74
2023/03/21 04:36:52;;;;;;;;;5.17;4.33;;;;;13.21;55.34;101423.56;2051177;28;2753469;-74
2023/03/21 04:38:03;;;;;;;;;4.67;4.67;;;;;13.20;55.15;101429.78;1995648;28;2746706;-75
2023/03/21 04:39:17;;;;;;;;;6.33;6.00;;;;;13.20;55.13;101423.63;2044715;28;2746109;-75
2023/03/21 04:40:27;;;;;;;;;10.00;5.67;;;;;13.20;55.21;101415.72;2026378;28;2766960;-75
2023/03/21 04:41:40;;;;;;;;;4.00;4.00;;;;;13.19;55.06;101424.53;2049023;28;2742989;-74
2023/03/21 04:42:50;;;;;;;;;8.00;5.00;;;;;13.18;54.38;101417.56;2018711;28;2745084;-75
2023/03/21 04:44:02;;;;;;;;;5.33;5.00;;;;;13.16;54.68;101426.38;2043403;28;2750715;-75
2023/03/21 04:45:16;;;;;;;;;5.00;4.50;;;;;13.17;54.47;101424.59;2023000;28;2746111;-75
2023/03/21 04:46:29;;;;;;;;;5.33;5.33;;;;;13.15;54.61;101418.50;2020084;28;2740894;-75
2023/03/21 04:47:40;;;;;;;;;8.00;7.00;;;;;13.14;54.47;101419.41;1995565;28;2737229;-75
2023/03/21 04:48:53;;;;;;;;;4.33;3.83;;;;;13.14;54.76;101414.13;2043630;28;2746142;-75
2023/03/21 04:50:08;;;;;;;;;3.83;3.83;;;;;13.13;54.32;101422.97;2020685;28;2734640;-75
2023/03/21 04:51:18;;;;;;;;;4.67;4.00;;;;;13.13;54.62;101423.84;1995199;28;2745478;-75
2023/03/21 04:52:29;;;;;;;;;4.00;4.00;;;;;13.12;54.45;101413.31;2032751;28;2752396;-75
2023/03/21 04:53:43;;;;;;;;;7.67;4.33;;;;;13.11;54.64;101399.25;2043086;28;2739893;-74
2023/03/21 04:54:54;;;;;;;;;4.67;4.67;;;;;13.12;54.90;101415.97;1995727;28;2748244;-74
2023/03/21 04:56:06;;;;;;;;;6.75;5.50;;;;;13.11;55.20;101417.72;2042767;28;2736225;-75
2023/03/21 04:57:19;;;;;;;;;4.67;4.00;;;;;13.12;55.39;101411.56;2036840;28;2746094;-75
2023/03/21 04:58:30;;;;;;;;;4.67;4.67;;;;;13.12;55.49;101426.53;2018147;28;2749253;-75
2023/03/21 04:59:41;;;;;;;;;4.67;4.33;;;;;13.11;55.43;101416.91;2031235;28;3460681;-75
2023/03/21 05:00:52;;;;;;;;;6.67;6.67;;;;;13.10;55.52;101409.88;2035914;28;2747647;-75
2023/03/21 05:02:05;;;;;;;;;5.17;5.17;;;;;13.11;55.68;101411.63;2019065;28;2748177;-75
2023/03/21 05:03:20;;;;;;;;;5.33;4.83;;;;;13.09;55.90;101414.28;2021709;28;2740886;-75
2023/03/21 05:04:34;;;;;;;;;7.17;6.83;;;;;13.10;56.26;101415.16;2044494;28;2746114;-75
2023/03/21 05:05:48;;;;;;;;;6.67;6.67;;;;;13.10;55.94;101425.72;2021732;28;2740901;-75
2023/03/21 05:06:58;;;;;;;;;5.00;5.00;;;;;13.09;56.07;101414.28;2025565;28;2743064;-75
2023/03/21 05:08:12;;;;;;;;;6.75;6.75;;;;;13.07;56.11;101416.13;2042756;28;2741950;-75
2023/03/21 05:09:26;;;;;;;;;5.83;5.33;;;;;13.06;56.73;101419.69;2044293;28;2745049;-75
2023/03/21 05:10:37;;;;;;;;;10.33;8.00;;;;;13.07;56.58;101425.81;1994812;28;2752337;-75
2023/03/21 05:11:49;;;;;;;;;6.33;6.33;;;;;13.07;56.83;101421.41;2034729;28;2734673;-75
2023/03/21 05:13:02;;;;;;;;;6.50;6.50;;;;;13.06;57.08;101414.41;2044679;28;2732599;-75
2023/03/21 05:14:21;;;;;;;;;7.50;7.00;;;;;13.05;57.41;101418.81;2044310;28;2740905;-74
2023/03/21 05:15:32;;;;;;;;;8.00;5.00;;;;;13.05;57.57;101418.81;1994069;28;3454403;-75
2023/03/21 05:16:47;;;;;;;;;4.67;4.00;;;;;13.05;57.40;101413.53;2036083;28;2746102;-75
2023/03/21 05:17:57;;;;;;;;;9.33;8.33;;;;;13.03;57.84;101412.75;1994616;28;3466938;-75
2023/03/21 05:19:12;;;;;;;;;9.00;7.00;;;;;13.02;58.16;101408.34;2031581;28;2742981;-75
2023/03/21 05:20:25;;;;;;;;;5.67;5.67;;;;;13.01;57.95;101411.91;2043919;28;2738810;-75
2023/03/21 05:21:42;;;;;;;;;6.67;6.00;;;;;13.01;58.10;101396.06;2020398;28;2744018;-75
2023/03/21 05:22:52;;;;;;;;;8.33;4.00;;;;;12.99;58.10;101397.88;1994551;28;2748257;-75
2023/03/21 05:24:05;;;;;;;;;10.00;5.33;;;;;12.99;58.10;101403.16;2043395;28;2751312;-75
2023/03/21 05:25:32;;;;;;;;;8.67;6.67;;;;;12.97;58.18;101410.28;2043192;28;2740905;-75
2023/03/21 05:26:49;;;;;;;;;6.33;5.67;;;;;12.96;58.18;101407.69;2018313;28;2745157;-75
2023/03/21 05:28:03;;;;;;;;;8.17;4.67;;;;;12.94;58.33;101400.69;2044596;28;2740951;-75
2023/03/21 05:29:18;;;;;;;;;9.33;8.33;;;;;12.94;58.41;101400.69;2020958;28;2749206;-75
2023/03/21 05:30:32;;;;;;;;;0.67;0.00;;;;;12.94;58.60;101405.09;2044138;28;2735729;-75
2023/03/21 05:31:45;;;;;;;;;7.50;7.50;;;;;12.92;58.82;101399.88;2044685;28;2736712;-75
2023/03/21 05:32:56;;;;;;;;;8.67;8.67;;;;;12.92;58.92;101406.91;1993510;28;3458581;-75
2023/03/21 05:34:07;;;;;;;;;7.67;7.67;;;;;12.90;58.42;101404.34;2042777;28;2741947;-75
2023/03/21 05:35:20;;;;;;;;;5.83;5.00;;;;;12.90;58.66;101409.63;2020935;28;2749220;-75
2023/03/21 05:36:34;;;;;;;;;7.50;6.83;;;;;12.90;58.63;101414.91;2020966;28;2736751;-75
2023/03/21 05:37:48;;;;;;;;;8.00;8.00;;;;;12.89;58.41;101409.69;2021014;28;2733591;-75
2023/03/21 05:38:58;;;;;;;;;9.67;8.67;;;;;12.89;58.14;101410.53;1994163;28;2759761;-75
2023/03/21 05:40:10;;;;;;;;;10.00;7.00;;;;;12.88;58.28;101414.09;2033358;28;2753478;-75
2023/03/21 05:41:20;;;;;;;;;8.67;8.67;;;;;12.88;58.35;101410.56;2017105;28;2740371;-75
2023/03/21 05:42:31;;;;;;;;;10.00;10.00;;;;;12.88;58.59;101407.94;2036864;28;3493997;-75
2023/03/21 05:43:44;;;;;;;;;7.60;7.60;;;;;12.87;58.71;101414.13;2044128;28;2737766;-75